首页
METAR-TAF:

METAR-TAF

机场 :

內排國際機場

河內, 越南

纬度: 21-01N, 经度: 105-48E, 海拔: 6米

当前天气观测

该预报发布于23分钟前的17:30 UTC
风速5节,风向东南
温度 31°C
湿度 71%
气压 1000 hPa
能见度10公里或以上
1500米以下无云,无积雨云

METAR: VVNB 231730Z 13005KT CAVOK 31/25 Q1000 NOSIG

时间: 00:53 (17:53 UTC)

预报

该预报发布于53分钟前的17:00 UTC
预报有效从23日的 18点(UTC)到 24日的 18点(UTC)
风速7节,风向南转南东
能見度: 6000
少量云层高于2500英尺
短暂存在
从 24日的 09点(UTC)到 24日的 13点(UTC)
散云层高于1000英尺
少量云层高于2700英尺, 积雨云.
雷暴

TAF: VVNB 231700Z 2318/2418 15007KT 6000 FEW025 TEMPO 2409/2413 TS SCT010 FEW027CB

超过4000个机场的气象观测和天气预报(METAR&TAF报告)。

可查询的气象台以黄色和红色小点在地图上表示。

将鼠标移到小点上方,可查看气象台名称。

然后点击查看天气观测和预报。

如需切换地图:点击带黑十字的绿色按钮放大地图;点击带横线的绿色按钮缩小地图;或者点击绿色箭头查看邻近地区的地图。


METAR-TAF: